createdAt,value
2019-05-12T00:01:19.648Z,97834.50
2019-05-12T00:04:28.152Z,97826.23
2019-05-12T00:07:38.171Z,97826.23
2019-05-12T00:10:47.841Z,97833.88
2019-05-12T00:13:58.488Z,97835.61
2019-05-12T00:17:08.186Z,97839.98
2019-05-12T00:20:18.624Z,97845.91
2019-05-12T00:23:28.681Z,97853.82
2019-05-12T00:26:38.283Z,97844.49
2019-05-12T00:29:48.535Z,97840.78
2019-05-12T00:32:58.069Z,97840.78
2019-05-12T00:36:08.054Z,97865.42
2019-05-12T00:39:18.890Z,97862.79
2019-05-12T00:42:28.609Z,97862.72
2019-05-12T00:45:38.260Z,97864.39
2019-05-12T00:48:48.248Z,97875.99
2019-05-12T00:51:58.576Z,97875.99
2019-05-12T00:55:08.021Z,97874.68
2019-05-12T00:58:19.361Z,97877.44
2019-05-12T01:01:28.542Z,97873.11
2019-05-12T01:04:38.120Z,97873.11
2019-05-12T01:07:48.215Z,97874.42
2019-05-12T01:10:58.300Z,97880.23
2019-05-12T01:14:08.611Z,97885.98
2019-05-12T01:17:17.696Z,97891.36
2019-05-12T01:20:28.031Z,97894.80
2019-05-12T01:23:35.644Z,97874.59
2019-05-12T01:26:43.733Z,97874.59
2019-05-12T01:29:51.909Z,97888.83
2019-05-12T01:36:23.540Z,97905.23
2019-05-12T01:39:31.532Z,97910.69
2019-05-12T01:42:39.598Z,97906.63
2019-05-12T01:45:48.283Z,97910.64
2019-05-12T01:48:58.959Z,97923.67
2019-05-12T01:52:08.595Z,97923.67
2019-05-12T01:55:18.508Z,97928.24
2019-05-12T01:58:27.807Z,97931.03
2019-05-12T02:01:38.618Z,97926.64
2019-05-12T02:05:08.607Z,97934.78
2019-05-12T02:08:22.482Z,97942.86
2019-05-12T02:11:34.358Z,97945.50
2019-05-12T02:14:42.470Z,97952.10
2019-05-12T02:17:50.924Z,97953.55
2019-05-12T02:20:59.247Z,97956.39
2019-05-12T02:24:07.966Z,97959.17
2019-05-12T02:27:17.805Z,97976.48
2019-05-12T02:30:30.085Z,97974.28
2019-05-12T02:33:36.548Z,97975.52
2019-05-12T02:36:45.061Z,97978.64
2019-05-12T02:39:55.612Z,97978.64
2019-05-12T02:43:06.011Z,97996.46
2019-05-12T02:46:15.492Z,98002.71
2019-05-12T02:49:24.510Z,98009.04
2019-05-12T02:52:34.722Z,97997.76
2019-05-12T02:55:45.052Z,97997.76
2019-05-12T02:58:54.364Z,98017.38
2019-05-12T03:02:05.242Z,98020.08
2019-05-12T03:05:14.848Z,98024.81
2019-05-12T03:08:25.612Z,98026.67
2019-05-12T03:11:35.570Z,98034.19
2019-05-12T03:14:46.036Z,98040.11
2019-05-12T03:17:54.668Z,98050.84
2019-05-12T03:21:05.557Z,98048.52
2019-05-12T03:24:14.717Z,98051.53
2019-05-12T03:27:25.633Z,98057.63
2019-05-12T03:30:38.427Z,98066.98
2019-05-12T03:33:50.168Z,98073.11
2019-05-12T03:36:58.574Z,98077.95
2019-05-12T03:40:05.180Z,98082.59
2019-05-12T03:43:14.519Z,98090.03
2019-05-12T03:46:24.566Z,98098.10
2019-05-12T03:49:30.445Z,98107.55
2019-05-12T03:52:38.533Z,98105.39
2019-05-12T03:55:47.336Z,98119.39
2019-05-12T03:58:55.513Z,98121.61
2019-05-12T04:02:04.785Z,98116.65
2019-05-12T04:05:15.555Z,98116.65
2019-05-12T04:08:24.620Z,98141.73
2019-05-12T04:11:35.699Z,98145.85
2019-05-12T04:14:44.847Z,98153.62
2019-05-12T04:17:54.234Z,98153.11
2019-05-12T04:21:05.198Z,98157.50
2019-05-12T04:24:14.071Z,98176.71
2019-05-12T04:27:21.396Z,98178.87
2019-05-12T04:30:29.607Z,98187.20
2019-05-12T04:33:37.556Z,98201.09
2019-05-12T04:36:45.547Z,98209.80
2019-05-12T04:39:55.361Z,98193.02
2019-05-12T04:43:05.958Z,98193.02
2019-05-12T04:46:14.520Z,98223.83
2019-05-12T04:49:25.068Z,98227.91
2019-05-12T04:52:35.154Z,98224.55
2019-05-12T04:55:44.614Z,98225.59
2019-05-12T04:58:54.627Z,98232.72
2019-05-12T05:02:05.164Z,98240.78
2019-05-12T05:05:14.253Z,98246.27
2019-05-12T05:08:20.905Z,98257.23
2019-05-12T05:11:28.888Z,98256.44
2019-05-12T05:14:37.289Z,98270.00
2019-05-12T05:17:46.017Z,98276.20
2019-05-12T05:20:54.445Z,98283.38
2019-05-12T05:24:03.617Z,98287.48
2019-05-12T05:27:13.264Z,98299.27
2019-05-12T05:30:21.099Z,98308.66
2019-05-12T05:33:29.239Z,98316.56
2019-05-12T05:36:37.719Z,98327.33
2019-05-12T05:39:49.564Z,98337.79
2019-05-12T05:42:55.854Z,98339.09
2019-05-12T05:46:07.730Z,98345.06
2019-05-12T05:49:14.513Z,98342.92
2019-05-12T05:52:24.512Z,98349.47
2019-05-12T05:55:34.204Z,98349.47
2019-05-12T05:58:46.911Z,98367.80
2019-05-12T06:01:54.905Z,98369.80
2019-05-12T06:05:04.429Z,98379.74
2019-05-12T06:08:19.779Z,98378.29
2019-05-12T06:11:28.135Z,98383.91
2019-05-12T06:14:34.187Z,98384.31
2019-05-12T06:17:43.893Z,98387.30
2019-05-12T06:20:54.105Z,98391.89
2019-05-12T06:24:03.531Z,98392.53
2019-05-12T06:27:19.228Z,98386.75
2019-05-12T06:30:24.153Z,98396.14
2019-05-12T06:33:36.140Z,98399.11
2019-05-12T06:36:44.175Z,98399.38
2019-05-12T06:39:57.925Z,98400.94
2019-05-12T06:43:04.390Z,98395.36
2019-05-12T06:46:20.368Z,98402.49
2019-05-12T06:49:24.585Z,98401.42
2019-05-12T06:52:33.701Z,98398.44
2019-05-12T06:55:43.267Z,98402.88
2019-05-12T06:58:53.455Z,98418.13
2019-05-12T07:02:03.398Z,98409.56
2019-05-12T07:05:14.593Z,98408.55
2019-05-12T07:08:27.483Z,98417.69
2019-05-12T07:11:44.543Z,98414.75
2019-05-12T07:14:44.312Z,98422.33
2019-05-12T07:18:10.276Z,98431.66
2019-05-12T07:21:20.264Z,98438.27
2019-05-12T07:24:27.366Z,98436.63
2019-05-12T07:27:39.608Z,98440.44
2019-05-12T07:30:46.430Z,98441.16
2019-05-12T07:33:54.231Z,98449.42
2019-05-12T07:37:04.241Z,98453.20
2019-05-12T07:40:13.729Z,98458.30
2019-05-12T07:43:21.530Z,98440.09
2019-05-12T07:46:29.744Z,98440.87
2019-05-12T07:49:38.853Z,98440.87
2019-05-12T07:52:49.284Z,98461.16
2019-05-12T07:55:57.600Z,98475.98
2019-05-12T07:59:06.104Z,98469.45
2019-05-12T08:02:14.344Z,98469.45
2019-05-12T08:05:24.042Z,98478.75
2019-05-12T08:08:33.961Z,98474.57
2019-05-12T08:11:43.475Z,98483.48
2019-05-12T08:14:51.529Z,98457.17
2019-05-12T08:17:59.908Z,98466.70
2019-05-12T08:21:08.553Z,98466.70
2019-05-12T08:24:19.241Z,98491.05
2019-05-12T08:27:27.530Z,98491.05
2019-05-12T08:30:40.430Z,98482.59
2019-05-12T08:33:47.668Z,98482.59
2019-05-12T08:36:57.912Z,98495.78
2019-05-12T08:40:07.608Z,98493.32
2019-05-12T08:43:19.653Z,98497.55
2019-05-12T08:46:27.838Z,98502.02
2019-05-12T08:49:50.106Z,98510.64
2019-05-12T08:52:46.546Z,98516.42
2019-05-12T08:55:54.526Z,98521.35
2019-05-12T08:59:09.437Z,98525.37
2019-05-12T09:02:14.583Z,98525.37
2019-05-12T09:05:25.856Z,98524.30
2019-05-12T09:08:37.961Z,98533.59
2019-05-12T09:11:44.041Z,98541.74
2019-05-12T09:14:54.580Z,98539.50
2019-05-12T09:18:04.771Z,98545.11
2019-05-12T09:21:14.331Z,98553.72
2019-05-12T09:24:27.229Z,98567.23
2019-05-12T09:27:33.592Z,98561.64
2019-05-12T09:30:47.623Z,98554.55
2019-05-12T09:33:54.773Z,98549.38
2019-05-12T09:37:04.016Z,98552.85
2019-05-12T09:40:14.729Z,98568.83
2019-05-12T09:43:23.929Z,98564.78
2019-05-12T09:46:34.261Z,98567.85
2019-05-12T09:49:44.426Z,98582.38
2019-05-12T09:52:55.608Z,98570.74
2019-05-12T09:56:05.051Z,98570.74
2019-05-12T09:59:20.830Z,98571.17
2019-05-12T10:02:23.892Z,98586.33
2019-05-12T10:05:37.545Z,98574.86
2019-05-12T10:08:43.493Z,98589.11
2019-05-12T10:12:00.275Z,98574.89
2019-05-12T10:15:04.106Z,98574.89
2019-05-12T10:18:14.342Z,98565.36
2019-05-12T10:21:23.822Z,98576.48
2019-05-12T10:24:40.226Z,98590.87
2019-05-12T10:27:44.088Z,98559.80
2019-05-12T10:30:56.924Z,98568.86
2019-05-12T10:34:24.195Z,98582.20
2019-05-12T10:37:32.654Z,98542.41
2019-05-12T10:40:44.400Z,98542.41
2019-05-12T10:43:57.781Z,98582.14
2019-05-12T10:47:06.565Z,98593.48
2019-05-12T10:50:18.514Z,98567.42
2019-05-12T10:53:27.576Z,98595.41
2019-05-12T10:56:36.341Z,98607.09
2019-05-12T10:59:48.449Z,98607.09
2019-05-12T11:02:54.943Z,98598.48
2019-05-12T11:06:07.518Z,98599.08
2019-05-12T11:09:14.914Z,98603.41
2019-05-12T11:12:25.318Z,98603.41
2019-05-12T11:15:34.362Z,98594.52
2019-05-12T11:18:43.669Z,98602.05
2019-05-12T11:21:53.603Z,98611.36
2019-05-12T11:25:04.104Z,98614.79
2019-05-12T11:28:13.872Z,98612.17
2019-05-12T11:31:21.537Z,98617.52
2019-05-12T11:34:29.619Z,98624.05
2019-05-12T11:37:39.364Z,98624.05
2019-05-12T11:40:46.483Z,98620.86
2019-05-12T11:43:53.347Z,98620.59
2019-05-12T11:47:03.816Z,98626.77
2019-05-12T11:50:13.248Z,98638.11
2019-05-12T11:53:30.959Z,98639.70
2019-05-12T11:56:35.280Z,98644.66
2019-05-12T11:59:58.049Z,98650.47
2019-05-12T12:02:54.588Z,98650.44
2019-05-12T12:06:02.555Z,98667.08
2019-05-12T12:09:15.238Z,98649.06
2019-05-12T12:12:19.428Z,98649.06
2019-05-12T12:15:30.372Z,98659.78
2019-05-12T12:18:38.586Z,98654.70
2019-05-12T12:21:50.060Z,98682.06
2019-05-12T12:24:56.989Z,98682.06
2019-05-12T12:28:05.239Z,98685.66
2019-05-12T12:31:13.518Z,98676.73
2019-05-12T12:34:25.397Z,98680.57
2019-05-12T12:37:33.147Z,98668.98
2019-05-12T12:40:43.790Z,98683.26
2019-05-12T12:43:53.971Z,98683.26
2019-05-12T12:47:02.032Z,98683.28
2019-05-12T12:50:20.265Z,98687.48
2019-05-12T12:53:27.678Z,98676.92
2019-05-12T12:56:36.742Z,98686.69
2019-05-12T12:59:51.463Z,98693.49
2019-05-12T13:02:58.522Z,98682.41
2019-05-12T13:06:06.554Z,98687.88
2019-05-12T13:09:24.319Z,98679.91
2019-05-12T13:12:24.502Z,98679.91
2019-05-12T13:15:33.992Z,98661.87
2019-05-12T13:18:43.530Z,98661.87
2019-05-12T13:21:53.210Z,98694.27
2019-05-12T13:25:06.470Z,98691.57
2019-05-12T13:28:18.427Z,98687.91
2019-05-12T13:31:21.376Z,98701.59
2019-05-12T13:34:28.760Z,98705.12
2019-05-12T13:37:38.027Z,98704.89
2019-05-12T13:40:47.224Z,98716.07
2019-05-12T13:43:59.840Z,98708.23
2019-05-12T13:47:05.561Z,98701.67
2019-05-12T13:50:21.508Z,98688.44
2019-05-12T13:53:24.486Z,98688.44
2019-05-12T13:56:35.312Z,98705.28
2019-05-12T13:59:43.509Z,98708.29
2019-05-12T14:02:57.202Z,98702.17
2019-05-12T14:06:03.547Z,98697.52
2019-05-12T14:09:15.412Z,98723.80
2019-05-12T14:12:25.240Z,98724.53
2019-05-12T14:15:34.129Z,98700.91
2019-05-12T14:18:44.212Z,98699.36
2019-05-12T14:21:54.237Z,98705.61
2019-05-12T14:25:02.229Z,98708.01
2019-05-12T14:28:13.592Z,98715.20
2019-05-12T14:31:29.303Z,98698.39
2019-05-12T14:34:30.385Z,98701.52
2019-05-12T14:37:40.341Z,98718.84
2019-05-12T14:40:47.031Z,98713.22
2019-05-12T14:44:01.661Z,98716.59
2019-05-12T14:47:07.448Z,98711.04
2019-05-12T14:50:15.443Z,98708.17
2019-05-12T14:53:23.726Z,98719.80
2019-05-12T14:56:33.805Z,98716.34
2019-05-12T14:59:44.064Z,98716.19
2019-05-12T15:02:53.858Z,98717.83
2019-05-12T15:06:07.226Z,98732.00
2019-05-12T15:09:19.605Z,98728.84
2019-05-12T15:12:24.297Z,98718.30
2019-05-12T15:15:33.569Z,98694.34
2019-05-12T15:18:46.794Z,98694.34
2019-05-12T15:21:53.621Z,98716.38
2019-05-12T15:25:03.402Z,98719.53
2019-05-12T15:28:14.539Z,98735.88
2019-05-12T15:31:24.222Z,98726.38
2019-05-12T15:34:33.777Z,98732.38
2019-05-12T15:37:43.712Z,98729.31
2019-05-12T15:40:53.814Z,98719.98
2019-05-12T15:44:03.345Z,98720.34
2019-05-12T15:47:11.499Z,98724.04
2019-05-12T15:50:19.566Z,98729.99
2019-05-12T15:53:27.907Z,98724.18
2019-05-12T15:56:37.558Z,98728.25
2019-05-12T15:59:46.576Z,98741.53
2019-05-12T16:02:54.557Z,98737.31
2019-05-12T16:06:10.028Z,98736.95
2019-05-12T16:09:13.249Z,98736.95
2019-05-12T16:12:26.114Z,98736.78
2019-05-12T16:15:31.554Z,98748.20
2019-05-12T16:18:40.422Z,98724.68
2019-05-12T16:21:49.599Z,98724.68
2019-05-12T16:24:57.412Z,98733.30
2019-05-12T16:28:07.607Z,98733.30
2019-05-12T16:31:15.251Z,98766.99
2019-05-12T16:34:23.631Z,98765.19
2019-05-12T16:37:35.295Z,98752.26
2019-05-12T16:40:45.544Z,98752.26
2019-05-12T16:43:53.774Z,98772.57
2019-05-12T16:47:04.304Z,98765.61
2019-05-12T16:50:23.720Z,98762.64
2019-05-12T16:53:27.812Z,98762.64
2019-05-12T16:56:36.557Z,98784.08
2019-05-12T16:59:44.538Z,98783.97
2019-05-12T17:02:57.647Z,98770.11
2019-05-12T17:06:03.581Z,98770.11
2019-05-12T17:09:13.462Z,98784.70
2019-05-12T17:12:23.985Z,98783.41
2019-05-12T17:15:33.810Z,98776.59
2019-05-12T17:18:44.157Z,98779.52
2019-05-12T17:21:57.583Z,98787.00
2019-05-12T17:25:01.536Z,98787.00
2019-05-12T17:28:08.477Z,98785.18
2019-05-12T17:31:18.539Z,98796.89
2019-05-12T17:34:26.630Z,98787.57
2019-05-12T17:37:37.502Z,98803.38
2019-05-12T17:40:50.347Z,98803.38
2019-05-12T17:44:01.367Z,98813.27
2019-05-12T17:47:12.930Z,98817.53
2019-05-12T17:50:24.409Z,98812.67
2019-05-12T17:53:36.197Z,98816.91
2019-05-12T17:56:43.461Z,98822.52
2019-05-12T17:59:51.891Z,98832.09
2019-05-12T18:03:15.657Z,98832.09
2019-05-12T18:06:14.143Z,98839.34
2019-05-12T18:09:23.629Z,98844.88
2019-05-12T18:12:36.532Z,98844.23
2019-05-12T18:15:44.241Z,98850.45
2019-05-12T18:18:52.395Z,98850.90
2019-05-12T18:22:03.534Z,98850.63
2019-05-12T18:25:09.229Z,98861.20
2019-05-12T18:28:21.583Z,98861.61
2019-05-12T18:31:30.140Z,98865.98
2019-05-12T18:34:38.248Z,98861.61
2019-05-12T18:37:46.540Z,98870.64
2019-05-12T18:40:55.057Z,98862.20
2019-05-12T18:44:04.722Z,98862.20
2019-05-12T18:47:16.799Z,98883.75
2019-05-12T18:50:31.413Z,98894.77
2019-05-12T18:53:38.546Z,98891.09
2019-05-12T18:56:52.479Z,98899.93
2019-05-12T19:00:03.659Z,98899.93
2019-05-12T19:03:09.994Z,98917.25
2019-05-12T19:06:17.572Z,98901.66
2019-05-12T19:09:25.519Z,98932.28
2019-05-12T19:12:35.663Z,98932.28
2019-05-12T19:15:45.285Z,98933.39
2019-05-12T19:18:55.623Z,98938.12
2019-05-12T19:22:09.249Z,98950.09
2019-05-12T19:25:19.494Z,98957.16
2019-05-12T19:28:27.567Z,98955.61
2019-05-12T19:31:36.735Z,98970.47
2019-05-12T19:34:46.924Z,98970.47
2019-05-12T19:37:54.940Z,98971.95
2019-05-12T19:41:04.698Z,98973.31
2019-05-12T19:44:13.526Z,98979.36
2019-05-12T19:47:33.156Z,98981.27
2019-05-12T19:50:33.659Z,98993.50
2019-05-12T19:53:43.749Z,98995.65
2019-05-12T19:56:54.125Z,98993.47
2019-05-12T20:00:04.354Z,99000.02
2019-05-12T20:03:13.871Z,99002.68
2019-05-12T20:06:24.297Z,98973.20
2019-05-12T20:09:32.277Z,98973.20
2019-05-12T20:12:40.608Z,99010.09
2019-05-12T20:15:48.921Z,99011.06
2019-05-12T20:18:57.911Z,99011.06
2019-05-12T20:22:10.547Z,99018.22
2019-05-12T20:25:23.665Z,98995.92
2019-05-12T20:28:34.608Z,98995.92
2019-05-12T20:31:44.365Z,99016.33
2019-05-12T20:34:55.408Z,99013.90
2019-05-12T20:38:04.162Z,99017.23
2019-05-12T20:41:21.865Z,99018.56
2019-05-12T20:44:23.901Z,99010.67
2019-05-12T20:47:33.727Z,99021.92
2019-05-12T20:50:40.440Z,99019.05
2019-05-12T20:53:50.125Z,99021.57
2019-05-12T20:57:07.945Z,99032.81
2019-05-12T21:00:08.784Z,99040.47
2019-05-12T21:03:17.360Z,99038.06
2019-05-12T21:06:25.550Z,99041.09
2019-05-12T21:09:34.918Z,99044.37
2019-05-12T21:12:48.091Z,99044.37
2019-05-12T21:15:54.155Z,99044.34
2019-05-12T21:19:10.261Z,99043.23
2019-05-12T21:22:14.254Z,99045.91
2019-05-12T21:25:23.301Z,99045.37
2019-05-12T21:28:31.275Z,99047.23
2019-05-12T21:31:39.753Z,99056.12
2019-05-12T21:34:52.336Z,99059.03
2019-05-12T21:37:58.392Z,99058.44
2019-05-12T21:41:10.039Z,99065.41
2019-05-12T21:44:19.338Z,99064.23
2019-05-12T21:47:27.394Z,99063.11
2019-05-12T21:50:38.279Z,99073.80
2019-05-12T21:53:50.636Z,99069.94
2019-05-12T21:56:55.267Z,99076.36
2019-05-12T22:00:04.761Z,99081.93
2019-05-12T22:03:15.531Z,99071.86
2019-05-12T22:06:24.977Z,99071.86
2019-05-12T22:09:41.769Z,99096.49
2019-05-12T22:12:44.178Z,99105.99
2019-05-12T22:15:56.941Z,99105.99
2019-05-12T22:19:04.236Z,99106.44
2019-05-12T22:22:13.573Z,99113.09
2019-05-12T22:25:23.619Z,99122.98
2019-05-12T22:28:31.588Z,99127.20
2019-05-12T22:31:44.884Z,99127.45
2019-05-12T22:34:49.491Z,99127.45
2019-05-12T22:37:57.554Z,99130.41
2019-05-12T22:41:05.595Z,99131.60
2019-05-12T22:44:18.182Z,99127.24
2019-05-12T22:47:23.979Z,99127.24
2019-05-12T22:50:34.886Z,99123.98
2019-05-12T22:53:43.454Z,99132.53
2019-05-12T22:56:55.315Z,99141.04
2019-05-12T23:00:04.005Z,99146.63
2019-05-12T23:03:14.970Z,99149.17
2019-05-12T23:06:26.812Z,99137.31
2019-05-12T23:09:33.956Z,99152.79
2019-05-12T23:12:44.109Z,99157.20
2019-05-12T23:15:52.240Z,99154.91
2019-05-12T23:19:01.548Z,99161.77
2019-05-12T23:22:10.643Z,99166.05
2019-05-12T23:25:21.491Z,99160.95
2019-05-12T23:28:28.656Z,99160.95
2019-05-12T23:31:37.350Z,99158.59
2019-05-12T23:34:56.646Z,99158.59
2019-05-12T23:37:55.563Z,99173.53
2019-05-12T23:41:04.193Z,99150.52
2019-05-12T23:44:13.554Z,99150.52
2019-05-12T23:47:23.667Z,99168.08
2019-05-12T23:50:31.345Z,99172.64
2019-05-12T23:53:39.595Z,99170.27
2019-05-12T23:56:47.590Z,99175.72
2019-05-12T23:59:55.908Z,99150.88
